Time;durP1;ratioP1;P1;durP2;ratioP2;P2;SDS_P1;SDS_P2;PMS_P1;PMS_P2;Temp;Humidity;BMP_temperature;BMP_pressure;BME280_temperature;BME280_humidity;BME280_pressure;Samples;Min_cycle;Max_cycle;Signal;HPM_P1;HPM_P2
2023/05/04 00:02:04;;;;;;;;;6.67;6.00;;;;;17.88;67.26;101415.72;5076528;28;61832;-72
2023/05/04 00:04:29;;;;;;;;;10.00;8.67;;;;;17.83;68.19;101406.88;5076407;27;58677;-71
2023/05/04 00:06:54;;;;;;;;;11.67;6.00;;;;;17.76;68.66;101398.91;5078136;28;45559;-71
2023/05/04 00:09:20;;;;;;;;;8.00;7.00;;;;;17.74;68.57;101394.50;5075730;27;65243;-71
2023/05/04 00:11:45;;;;;;;;;6.00;6.00;;;;;17.73;69.49;101396.25;5076495;28;52760;-71
2023/05/04 00:14:10;;;;;;;;;10.67;6.00;;;;;17.68;69.70;101389.16;5077332;27;58792;-71
2023/05/04 00:16:36;;;;;;;;;7.33;7.00;;;;;17.64;69.83;101382.97;5072553;28;45714;-70
2023/05/04 00:19:01;;;;;;;;;6.00;6.00;;;;;17.63;70.39;101383.88;5048232;28;47273;-71
2023/05/04 00:21:27;;;;;;;;;7.00;7.00;;;;;17.60;70.58;101377.69;5062495;28;45371;-70
2023/05/04 00:23:52;;;;;;;;;8.00;7.00;;;;;17.56;70.90;101376.81;5062547;28;61819;-72
2023/05/04 00:26:17;;;;;;;;;10.67;8.00;;;;;17.52;71.27;101377.72;5060332;28;45415;-71
2023/05/04 00:28:43;;;;;;;;;7.67;6.33;;;;;17.49;71.42;101377.78;5072448;28;70204;-71
2023/05/04 00:31:08;;;;;;;;;10.00;7.00;;;;;17.45;71.35;101368.91;5078238;27;45520;-71
2023/05/04 00:33:33;;;;;;;;;7.33;5.67;;;;;17.44;71.49;101368.91;5074523;27;63620;-71
2023/05/04 00:36:02;;;;;;;;;6.00;6.00;;;;;17.43;72.20;101370.72;5076678;28;55418;-70
2023/05/04 00:38:27;;;;;;;;;7.00;7.00;;;;;17.39;72.19;101362.72;5068194;27;46241;-71
2023/05/04 00:40:52;;;;;;;;;6.00;6.00;;;;;17.37;72.53;101356.53;5069546;28;63749;-71
2023/05/04 00:43:17;;;;;;;;;7.00;7.00;;;;;17.35;72.80;101360.97;5071809;28;56206;-71
2023/05/04 00:45:43;;;;;;;;;6.33;6.33;;;;;17.31;72.59;101349.47;5066158;28;55462;-72
2023/05/04 00:48:09;;;;;;;;;7.33;7.00;;;;;17.27;73.39;101351.25;5067430;27;62370;-71
2023/05/04 00:50:35;;;;;;;;;11.00;7.00;;;;;17.23;73.39;101344.16;5070996;28;45314;-70
2023/05/04 00:53:04;;;;;;;;;8.67;6.00;;;;;17.21;73.68;101342.44;5074926;28;45431;-70
2023/05/04 00:55:30;;;;;;;;;7.00;6.00;;;;;17.19;73.77;101339.75;5069743;28;45370;-71
2023/05/04 00:57:56;;;;;;;;;8.67;5.00;;;;;17.18;74.17;101332.66;5074236;28;45591;-70
2023/05/04 01:00:21;;;;;;;;;9.00;8.00;;;;;17.10;74.26;101326.50;5063800;28;45419;-71
2023/05/04 01:02:48;;;;;;;;;7.00;6.00;;;;;17.11;74.65;101324.72;5073593;28;45544;-72
2023/05/04 01:05:13;;;;;;;;;9.00;6.00;;;;;17.11;74.64;101336.28;5075949;27;58911;-72
2023/05/04 01:07:41;;;;;;;;;7.67;7.00;;;;;17.09;74.83;101332.72;5075773;28;46086;-71
2023/05/04 01:10:14;;;;;;;;;7.33;6.00;;;;;17.06;75.20;101326.53;5075827;28;45221;-71
2023/05/04 01:12:43;;;;;;;;;7.00;5.33;;;;;17.06;75.21;101327.41;5074711;28;45662;-72
2023/05/04 01:15:10;;;;;;;;;6.67;6.67;;;;;17.02;75.51;101329.22;5057352;28;45720;-71
2023/05/04 01:17:36;;;;;;;;;6.67;6.67;;;;;17.02;75.74;101323.00;5081270;27;46667;-71
2023/05/04 01:20:02;;;;;;;;;6.67;6.33;;;;;17.03;75.96;101330.09;5068316;27;45265;-71
2023/05/04 01:22:27;;;;;;;;;7.00;7.00;;;;;16.99;76.14;101318.59;5074350;28;45321;-72
2023/05/04 01:24:53;;;;;;;;;6.00;5.67;;;;;16.97;76.34;101315.03;5059595;28;61348;-71
2023/05/04 01:27:40;;;;;;;;;9.00;7.00;;;;;16.98;76.50;101322.13;5073467;28;45630;-70
2023/05/04 01:30:10;;;;;;;;;6.00;6.00;;;;;16.93;76.99;101325.72;5069935;28;45425;-71
2023/05/04 01:32:36;;;;;;;;;9.33;6.00;;;;;16.93;77.17;101328.41;5092306;27;45446;-71
2023/05/04 01:35:01;;;;;;;;;6.33;6.33;;;;;16.91;77.33;101324.88;5074213;28;45739;-72
2023/05/04 01:37:27;;;;;;;;;10.67;6.00;;;;;16.88;77.34;101319.53;5190675;22;66433;-71
2023/05/04 01:39:52;;;;;;;;;7.00;7.00;;;;;16.85;77.75;101309.78;5072524;28;64027;-71
2023/05/04 01:42:17;;;;;;;;;6.33;6.33;;;;;16.84;77.78;101304.47;5070123;28;61474;-71
2023/05/04 01:44:43;;;;;;;;;7.33;6.33;;;;;16.83;78.14;101300.94;5071305;27;45372;-71
2023/05/04 01:47:08;;;;;;;;;7.00;5.67;;;;;16.77;78.27;101293.81;5076884;28;45517;-71
2023/05/04 01:49:34;;;;;;;;;7.33;6.00;;;;;16.81;77.94;101309.81;5067651;27;45362;-71
2023/05/04 01:51:59;;;;;;;;;7.33;7.33;;;;;16.74;77.84;101296.53;5061371;28;45189;-71
2023/05/04 01:54:24;;;;;;;;;7.33;7.33;;;;;16.74;78.03;101303.66;5072878;28;45618;-72
2023/05/04 01:56:50;;;;;;;;;8.00;6.00;;;;;16.71;78.22;101299.22;5059180;28;46324;-71
2023/05/04 01:59:15;;;;;;;;;7.67;7.00;;;;;16.69;78.47;101297.44;5058332;28;45393;-71
2023/05/04 02:01:41;;;;;;;;;9.67;8.33;;;;;16.64;79.04;101301.91;5072532;28;45320;-70
2023/05/04 02:04:06;;;;;;;;;8.00;6.33;;;;;16.64;79.54;101308.13;5075994;27;45383;-72
2023/05/04 02:06:32;;;;;;;;;10.00;8.33;;;;;16.64;80.16;101308.13;5075950;28;45723;-71
2023/05/04 02:08:58;;;;;;;;;6.33;6.33;;;;;16.63;80.16;101305.47;5076749;28;48223;-71
2023/05/04 02:11:23;;;;;;;;;6.00;6.00;;;;;16.61;79.91;101301.91;5073797;27;45512;-70
2023/05/04 02:13:48;;;;;;;;;6.67;6.67;;;;;16.59;80.21;101304.59;5072136;28;60568;-71
2023/05/04 02:16:13;;;;;;;;;10.33;8.00;;;;;16.56;80.55;101309.94;5066547;28;67690;-72
2023/05/04 02:18:39;;;;;;;;;8.00;7.00;;;;;16.57;80.86;101311.72;5072193;27;59962;-70
2023/05/04 02:21:04;;;;;;;;;8.33;6.33;;;;;16.53;81.24;101295.75;5059813;27;65067;-70
2023/05/04 02:23:30;;;;;;;;;7.33;7.00;;;;;16.54;82.01;101297.53;5060167;28;45437;-71
2023/05/04 02:25:55;;;;;;;;;7.33;7.33;;;;;16.55;82.35;101296.63;5058414;27;69330;-72
2023/05/04 02:28:20;;;;;;;;;9.67;6.67;;;;;16.54;82.17;101293.06;5068862;28;45445;-70
2023/05/04 02:30:46;;;;;;;;;8.00;6.00;;;;;16.53;82.08;101298.41;5075968;27;45350;-71
2023/05/04 02:33:11;;;;;;;;;10.00;7.67;;;;;16.52;82.17;101291.31;5074864;27;59252;-71
2023/05/04 02:35:36;;;;;;;;;8.67;8.67;;;;;16.48;82.13;101285.13;5070332;27;58678;-70
2023/05/04 02:38:02;;;;;;;;;9.00;7.00;;;;;16.47;82.03;101292.22;5073116;27;45300;-71
2023/05/04 02:40:27;;;;;;;;;8.00;7.33;;;;;16.49;82.71;101289.53;5072871;28;51384;-71
2023/05/04 02:42:52;;;;;;;;;7.33;7.33;;;;;16.49;83.00;101284.22;5064370;28;57827;-70
2023/05/04 02:45:18;;;;;;;;;9.00;7.00;;;;;16.52;83.35;101291.31;5069492;27;45673;-71
2023/05/04 02:47:44;;;;;;;;;6.00;6.00;;;;;16.52;83.72;101286.00;5061371;27;45526;-72
2023/05/04 02:50:09;;;;;;;;;7.00;7.00;;;;;16.54;84.40;101284.19;5072811;28;62961;-70
2023/05/04 02:52:34;;;;;;;;;5.00;4.33;;;;;16.52;84.20;101286.88;5069359;28;45409;-72
2023/05/04 02:55:00;;;;;;;;;9.67;7.00;;;;;16.54;83.98;101286.84;5068548;28;65027;-71
2023/05/04 02:57:26;;;;;;;;;10.00;10.00;;;;;16.49;83.95;101278.88;5077099;27;45370;-71
2023/05/04 02:59:51;;;;;;;;;11.33;11.33;;;;;16.43;83.57;101274.47;5073329;27;51842;-72
2023/05/04 03:02:16;;;;;;;;;16.67;13.00;;;;;16.42;83.66;101280.72;5075163;28;58920;-70
2023/05/04 03:04:42;;;;;;;;;14.67;12.33;;;;;16.39;84.34;101271.84;5059951;27;69092;-72
2023/05/04 03:07:08;;;;;;;;;15.00;15.00;;;;;16.39;84.98;101266.50;5074145;27;45448;-71
2023/05/04 03:09:33;;;;;;;;;12.33;12.33;;;;;16.39;84.84;101278.03;5073548;27;45392;-70
2023/05/04 03:11:58;;;;;;;;;16.33;11.33;;;;;16.37;85.37;101268.31;5085999;27;45545;-70
2023/05/04 03:14:24;;;;;;;;;12.33;11.00;;;;;16.35;85.24;101260.31;5074661;28;63132;-71
2023/05/04 03:16:49;;;;;;;;;10.33;10.33;;;;;16.30;85.06;101259.47;5068720;27;53605;-70
2023/05/04 03:19:17;;;;;;;;;9.33;7.00;;;;;16.28;84.99;101255.03;5064427;27;45342;-71
2023/05/04 03:21:44;;;;;;;;;8.67;8.67;;;;;16.21;84.35;101262.19;5066833;28;45460;-71
2023/05/04 03:24:10;;;;;;;;;10.33;7.33;;;;;16.16;84.69;101256.88;5059607;28;45993;-70
2023/05/04 03:26:35;;;;;;;;;9.00;7.00;;;;;16.15;85.71;101257.75;5058190;28;45391;-70
2023/05/04 03:29:01;;;;;;;;;10.00;10.00;;;;;16.12;86.04;101263.09;5074585;28;45431;-71
2023/05/04 03:31:26;;;;;;;;;13.67;11.33;;;;;16.11;86.07;101252.47;5076127;27;57423;-72
2023/05/04 03:33:51;;;;;;;;;8.67;7.67;;;;;16.09;86.94;101244.47;5075026;27;66087;-71
2023/05/04 03:36:17;;;;;;;;;9.33;9.00;;;;;16.07;87.38;101246.25;5076048;27;64568;-71
2023/05/04 03:38:42;;;;;;;;;8.00;8.00;;;;;16.04;86.95;101245.41;5075136;28;45282;-70
2023/05/04 03:41:09;;;;;;;;;10.00;9.00;;;;;16.00;86.55;101243.63;5075162;27;45269;-70
2023/05/04 03:43:35;;;;;;;;;11.00;10.00;;;;;15.95;86.74;101247.19;5074762;28;46606;-72
2023/05/04 03:46:00;;;;;;;;;8.67;8.67;;;;;15.95;87.03;101240.97;5076862;28;45447;-72
2023/05/04 03:48:25;;;;;;;;;10.00;9.00;;;;;15.89;87.82;101241.91;5066054;27;64809;-71
2023/05/04 03:50:51;;;;;;;;;8.33;8.33;;;;;15.90;88.46;101250.78;5067190;28;45510;-70
2023/05/04 03:53:16;;;;;;;;;7.00;5.33;;;;;15.88;88.81;101248.13;5062959;28;45721;-70
2023/05/04 03:55:41;;;;;;;;;9.00;9.00;;;;;15.89;88.98;101246.34;5071678;28;66403;-71
2023/05/04 03:58:07;;;;;;;;;11.33;10.67;;;;;15.88;89.59;101241.91;5060754;27;61881;-71
2023/05/04 04:00:32;;;;;;;;;9.33;9.33;;;;;15.87;90.32;101243.69;5071186;28;45498;-70
2023/05/04 04:02:57;;;;;;;;;10.67;9.33;;;;;15.86;90.27;101235.69;5077544;28;45846;-71
2023/05/04 04:05:23;;;;;;;;;10.67;10.67;;;;;15.85;90.70;101232.16;5076130;28;45407;-72
2023/05/04 04:07:48;;;;;;;;;12.67;10.00;;;;;15.86;90.84;101241.03;5077517;27;54613;-71
2023/05/04 04:10:13;;;;;;;;;11.00;10.00;;;;;15.86;91.33;101238.34;5077147;27;60382;-71
2023/05/04 04:12:39;;;;;;;;;10.00;10.00;;;;;15.82;92.22;101228.59;5076057;27;68144;-72
2023/05/04 04:15:05;;;;;;;;;10.67;9.00;;;;;15.83;92.01;101241.06;5075600;28;45215;-71
2023/05/04 04:17:31;;;;;;;;;11.33;10.33;;;;;15.80;91.84;101233.94;5045210;28;45317;-70
2023/05/04 04:19:56;;;;;;;;;10.33;10.33;;;;;15.81;92.00;101242.81;5069846;28;58829;-71
2023/05/04 04:22:21;;;;;;;;;11.67;7.33;;;;;15.81;92.47;101242.81;5069176;27;65571;-71
2023/05/04 04:24:47;;;;;;;;;13.67;12.00;;;;;15.78;92.62;101242.84;5065257;28;67492;-71
2023/05/04 04:27:12;;;;;;;;;10.33;10.33;;;;;15.77;92.95;101239.28;5068052;27;45356;-71
2023/05/04 04:29:38;;;;;;;;;12.67;9.00;;;;;15.76;93.11;101231.28;5063209;28;45537;-71
2023/05/04 04:32:04;;;;;;;;;13.67;9.67;;;;;15.74;92.81;101236.63;5064699;28;46642;-71
2023/05/04 04:34:29;;;;;;;;;10.67;10.00;;;;;15.71;92.92;101220.66;5060698;28;45415;-70
2023/05/04 04:36:55;;;;;;;;;11.00;11.00;;;;;15.69;93.61;101214.47;5061880;28;55729;-70
2023/05/04 04:39:21;;;;;;;;;11.00;11.00;;;;;15.65;93.49;101208.25;5078081;27;54239;-71
2023/05/04 04:41:46;;;;;;;;;9.33;8.00;;;;;15.68;94.45;101212.69;5078380;28;46498;-70
2023/05/04 04:44:12;;;;;;;;;11.00;9.00;;;;;15.65;94.38;101210.03;5074654;27;60198;-72
2023/05/04 04:46:37;;;;;;;;;12.00;11.33;;;;;15.65;94.12;101207.38;5071269;28;45685;-71
2023/05/04 04:49:03;;;;;;;;;9.33;9.00;;;;;15.60;94.45;101196.69;5073177;28;45276;-71
2023/05/04 04:51:28;;;;;;;;;11.00;9.00;;;;;15.62;94.57;101202.03;5069862;27;58729;-72
2023/05/04 04:53:53;;;;;;;;;9.67;9.67;;;;;15.61;95.25;101195.84;5074289;28;45664;-72
2023/05/04 04:56:19;;;;;;;;;9.33;8.33;;;;;15.57;95.72;101180.75;5089089;27;45571;-70
2023/05/04 04:58:45;;;;;;;;;11.67;9.33;;;;;15.60;95.58;101191.38;5059149;28;53697;-70
2023/05/04 05:01:16;;;;;;;;;10.00;9.33;;;;;15.59;95.49;101189.63;5068625;28;46439;-72
2023/05/04 05:03:43;;;;;;;;;10.67;9.00;;;;;15.57;95.71;101187.88;5078036;27;45318;-70
2023/05/04 05:06:09;;;;;;;;;11.00;9.00;;;;;15.55;96.07;101186.97;5075994;27;45144;-70
2023/05/04 05:08:35;;;;;;;;;8.67;8.67;;;;;15.56;96.55;101188.75;5077794;27;45604;-70
2023/05/04 05:11:00;;;;;;;;;15.00;9.00;;;;;15.54;97.18;101190.53;5074276;27;46674;-70
2023/05/04 05:13:25;;;;;;;;;11.67;10.00;;;;;15.56;97.46;101191.44;5077743;28;51751;-71
2023/05/04 05:15:51;;;;;;;;;16.67;10.33;;;;;15.52;97.00;101179.00;5072180;27;45334;-72
2023/05/04 05:18:16;;;;;;;;;12.00;10.00;;;;;15.52;97.38;101179.91;5069890;28;51064;-72
2023/05/04 05:20:41;;;;;;;;;10.00;8.67;;;;;15.50;97.69;101179.03;5069928;27;46247;-71
2023/05/04 05:23:07;;;;;;;;;11.33;11.33;;;;;15.53;98.51;101189.66;5065167;28;66456;-70
2023/05/04 05:25:32;;;;;;;;;13.00;10.33;;;;;15.55;98.52;101189.63;5067598;27;57484;-71
2023/05/04 05:27:57;;;;;;;;;13.67;10.67;;;;;15.54;98.65;101186.09;5062856;28;45516;-72
2023/05/04 05:30:23;;;;;;;;;12.67;10.67;;;;;15.55;98.47;101184.31;5056326;28;70572;-71
2023/05/04 05:32:48;;;;;;;;;15.67;13.00;;;;;15.53;99.09;101181.66;5060740;28;45311;-71
2023/05/04 05:35:14;;;;;;;;;10.67;8.67;;;;;15.56;99.29;101181.66;5060892;28;45284;-71
2023/05/04 05:37:39;;;;;;;;;16.00;10.33;;;;;15.58;99.91;101195.84;5065470;28;56193;-70
2023/05/04 05:40:08;;;;;;;;;13.33;11.33;;;;;15.60;100.00;101199.38;5075622;27;63831;-72
2023/05/04 05:42:33;;;;;;;;;13.00;11.67;;;;;15.61;100.00;101189.63;5072838;28;45254;-71
2023/05/04 05:45:00;;;;;;;;;12.33;10.00;;;;;15.61;100.00;101202.94;5072486;27;64526;-70
2023/05/04 05:47:26;;;;;;;;;11.00;11.00;;;;;15.65;100.00;101197.59;5073937;28;45472;-71
2023/05/04 05:49:51;;;;;;;;;13.33;12.00;;;;;15.68;100.00;101210.91;5069499;28;45264;-70
2023/05/04 05:52:17;;;;;;;;;14.67;10.33;;;;;15.71;100.00;101210.91;5071354;28;46293;-70
2023/05/04 05:54:42;;;;;;;;;16.00;10.33;;;;;15.74;100.00;101209.13;5077904;28;45414;-71
2023/05/04 05:57:07;;;;;;;;;12.33;12.33;;;;;15.76;100.00;101205.56;5077121;27;50118;-71
2023/05/04 05:59:33;;;;;;;;;11.00;10.67;;;;;15.78;100.00;101203.78;5061755;27;65982;-72
2023/05/04 06:01:59;;;;;;;;;10.67;10.00;;;;;15.79;100.00;101197.56;5068451;28;45336;-70
2023/05/04 06:04:24;;;;;;;;;10.33;9.67;;;;;15.81;100.00;101186.91;5065304;28;45320;-71
2023/05/04 06:06:49;;;;;;;;;15.00;11.33;;;;;15.88;100.00;101192.19;5069827;28;45587;-72
2023/05/04 06:09:15;;;;;;;;;11.00;11.00;;;;;15.90;100.00;101184.19;5069197;27;67456;-71
2023/05/04 06:11:41;;;;;;;;;10.00;10.00;;;;;15.95;100.00;101183.28;5075365;28;45734;-71
2023/05/04 06:14:06;;;;;;;;;11.00;10.33;;;;;16.01;100.00;101176.16;5073662;28;45343;-72
2023/05/04 06:16:32;;;;;;;;;13.67;11.00;;;;;16.07;100.00;101174.31;5060313;28;45446;-72
2023/05/04 06:18:57;;;;;;;;;10.33;10.33;;;;;16.12;100.00;101160.97;5060298;28;45670;-71
2023/05/04 06:21:22;;;;;;;;;10.00;10.00;;;;;16.22;100.00;101160.03;5056637;28;45373;-71
2023/05/04 06:23:48;;;;;;;;;12.00;11.00;;;;;16.31;100.00;101159.09;5068515;28;65695;-71
2023/05/04 06:26:13;;;;;;;;;16.33;11.33;;;;;16.40;100.00;101159.00;5091539;27;47791;-71
2023/05/04 06:28:38;;;;;;;;;11.00;11.00;;;;;16.45;100.00;101146.50;5075201;28;65496;-71
2023/05/04 06:31:04;;;;;;;;;9.00;9.00;;;;;16.50;100.00;101142.03;5071831;27;65898;-71
2023/05/04 06:33:29;;;;;;;;;11.33;11.00;;;;;16.63;100.00;101162.38;5071141;27;45299;-71
2023/05/04 06:35:54;;;;;;;;;10.00;10.00;;;;;16.70;100.00;101153.41;5066295;28;45164;-72
2023/05/04 06:38:20;;;;;;;;;13.00;11.67;;;;;16.83;100.00;101167.56;5065338;27;46900;-70
2023/05/04 06:40:46;;;;;;;;;11.33;10.00;;;;;16.95;99.37;101166.56;5068948;27;45297;-72
2023/05/04 06:43:11;;;;;;;;;11.67;10.00;;;;;17.05;99.10;101168.25;5070235;28;45310;-71
2023/05/04 06:45:38;;;;;;;;;10.67;10.00;;;;;17.15;99.44;101166.34;5059582;28;59187;-71
2023/05/04 06:48:03;;;;;;;;;11.33;11.33;;;;;17.25;98.67;101168.88;5060642;28;45426;-70
2023/05/04 06:50:29;;;;;;;;;7.33;7.33;;;;;17.35;98.51;101175.00;5057831;28;45355;-71
2023/05/04 06:53:02;;;;;;;;;9.67;9.33;;;;;17.45;98.92;101160.66;5058581;28;45339;-71
2023/05/04 06:55:28;;;;;;;;;9.00;9.00;;;;;17.50;98.33;101155.28;5076292;27;45434;-71
2023/05/04 06:57:53;;;;;;;;;12.33;12.33;;;;;17.58;97.64;101156.06;5072055;27;46209;-71
2023/05/04 07:00:18;;;;;;;;;21.00;19.33;;;;;17.64;97.18;101158.66;5072734;27;62767;-71
2023/05/04 07:02:45;;;;;;;;;10.00;10.00;;;;;17.66;96.48;101146.16;5068628;27;45414;-72
2023/05/04 07:05:11;;;;;;;;;11.67;10.33;;;;;17.71;96.33;101138.09;5071385;28;45526;-71
2023/05/04 07:07:36;;;;;;;;;13.00;11.00;;;;;17.73;96.45;101138.97;5072213;27;52944;-71
2023/05/04 07:10:01;;;;;;;;;12.00;10.00;;;;;17.74;96.06;101152.31;5070413;28;45568;-71
2023/05/04 07:12:27;;;;;;;;;13.67;12.00;;;;;17.75;96.56;101142.53;5074561;27;45462;-71
2023/05/04 07:14:52;;;;;;;;;9.33;9.33;;;;;17.79;96.00;101141.59;5073917;28;45283;-71
2023/05/04 07:17:20;;;;;;;;;10.33;9.33;;;;;17.86;96.19;101137.03;5071264;28;46471;-71
2023/05/04 07:19:48;;;;;;;;;10.33;10.33;;;;;17.89;96.33;101143.19;5072145;28;46011;-72
2023/05/04 07:22:14;;;;;;;;;11.33;11.33;;;;;17.97;95.80;101143.97;5067437;28;45365;-71
2023/05/04 07:24:40;;;;;;;;;10.33;10.00;;;;;18.02;95.43;101138.56;5063173;28;45522;-71
2023/05/04 07:27:05;;;;;;;;;12.33;10.33;;;;;18.05;95.60;101135.84;5062227;28;59864;-71
2023/05/04 07:29:31;;;;;;;;;14.00;12.33;;;;;18.09;95.42;101152.72;5060379;28;45363;-70
2023/05/04 07:31:56;;;;;;;;;12.00;9.33;;;;;18.14;95.62;101162.44;5088988;27;45235;-72
2023/05/04 07:34:21;;;;;;;;;13.00;12.00;;;;;18.19;95.23;101163.25;5077255;28;45223;-71
2023/05/04 07:36:47;;;;;;;;;10.67;10.67;;;;;18.31;95.44;101157.72;5077586;27;57582;-71
2023/05/04 07:39:13;;;;;;;;;13.00;11.67;;;;;18.43;95.38;101150.41;5071153;28;64123;-72
2023/05/04 07:41:38;;;;;;;;;12.67;10.00;;;;;18.56;94.64;101157.31;5069313;27;45210;-70
2023/05/04 07:44:04;;;;;;;;;11.67;11.67;;;;;18.66;94.01;101155.38;5072319;28;52419;-71
2023/05/04 07:46:30;;;;;;;;;13.67;11.67;;;;;18.77;93.86;101137.38;5072296;27;46856;-71
2023/05/04 07:48:55;;;;;;;;;9.00;9.00;;;;;18.87;94.01;101130.97;5065639;28;45338;-71
2023/05/04 07:51:21;;;;;;;;;13.33;10.00;;;;;19.00;93.70;101145.84;5069285;28;45263;-71
2023/05/04 07:53:46;;;;;;;;;11.33;11.33;;;;;19.09;93.88;101151.03;5063899;28;45636;-71
2023/05/04 07:56:12;;;;;;;;;12.00;10.67;;;;;19.18;92.68;101152.69;5064609;28;46855;-71
2023/05/04 07:58:38;;;;;;;;;10.00;10.00;;;;;19.26;91.83;101149.84;5060874;28;45501;-71
2023/05/04 08:01:03;;;;;;;;;13.33;11.00;;;;;19.30;91.51;101148.88;5070301;28;45326;-71
2023/05/04 08:03:29;;;;;;;;;10.67;8.00;;;;;19.37;90.51;101138.00;5076265;27;45614;-71
2023/05/04 08:05:55;;;;;;;;;13.00;10.67;;;;;19.43;90.51;101134.31;5077609;27;47653;-72
2023/05/04 08:08:20;;;;;;;;;10.33;8.67;;;;;19.51;90.45;101139.53;5077948;28;45367;-71
2023/05/04 08:10:46;;;;;;;;;9.00;9.00;;;;;19.57;91.04;101137.59;5073960;27;45523;-70
2023/05/04 08:13:11;;;;;;;;;11.00;9.00;;;;;19.61;90.09;101135.75;5072875;27;45351;-71
2023/05/04 08:15:36;;;;;;;;;11.33;9.67;;;;;19.65;89.81;101145.47;5070476;28;70648;-72
2023/05/04 08:18:02;;;;;;;;;9.67;9.67;;;;;19.72;89.90;101148.94;5063066;28;45320;-72
2023/05/04 08:20:27;;;;;;;;;13.33;12.00;;;;;19.77;89.21;101142.56;5066356;28;45466;-71
2023/05/04 08:22:53;;;;;;;;;13.00;12.33;;;;;19.86;89.67;101147.69;5061135;27;59639;-72
2023/05/04 08:25:18;;;;;;;;;16.00;10.00;;;;;19.94;89.22;101142.16;5062004;28;45426;-71
2023/05/04 08:27:44;;;;;;;;;9.67;8.00;;;;;19.98;89.25;101137.63;5078147;28;45393;-71
2023/05/04 08:30:10;;;;;;;;;10.00;9.67;;;;;20.03;88.64;101133.94;5082200;27;45448;-71
2023/05/04 08:32:35;;;;;;;;;7.67;7.67;;;;;20.11;88.85;101141.78;5077398;28;45370;-71
2023/05/04 08:35:01;;;;;;;;;11.33;10.00;;;;;20.14;88.75;101133.69;5079128;27;46914;-72
2023/05/04 08:37:26;;;;;;;;;10.00;10.00;;;;;20.11;88.15;101128.38;5072058;27;59299;-70
2023/05/04 08:39:51;;;;;;;;;9.00;9.00;;;;;20.13;88.94;101126.53;5073887;27;45418;-70
2023/05/04 08:42:30;;;;;;;;;9.00;9.00;;;;;20.11;88.03;101113.16;5066612;28;51936;-71
2023/05/04 08:44:57;;;;;;;;;8.00;8.00;;;;;20.16;88.42;101113.06;5070745;27;45520;-71
2023/05/04 08:47:23;;;;;;;;;7.33;6.67;;;;;20.18;88.67;101113.88;5076480;28;45265;-72
2023/05/04 08:49:48;;;;;;;;;10.33;8.00;;;;;20.17;88.53;101105.91;5071094;27;45287;-70
2023/05/04 08:52:15;;;;;;;;;9.00;9.00;;;;;20.24;88.32;101111.09;5077103;28;62058;-71
2023/05/04 08:54:42;;;;;;;;;7.00;7.00;;;;;20.32;87.79;101110.88;5076878;28;68369;-71
2023/05/04 08:57:07;;;;;;;;;8.67;8.67;;;;;20.36;87.79;101105.41;5077507;28;45361;-71
2023/05/04 08:59:33;;;;;;;;;9.00;8.00;;;;;20.38;87.62;101100.88;5073806;28;59141;-71
2023/05/04 09:01:59;;;;;;;;;7.67;7.00;;;;;20.38;87.69;101098.19;5072493;28;45442;-71
2023/05/04 09:04:25;;;;;;;;;7.67;7.67;;;;;20.38;86.39;101094.63;5070618;28;45707;-71
2023/05/04 09:06:52;;;;;;;;;8.00;8.00;;;;;20.33;86.65;101107.28;5072887;28;45430;-72
2023/05/04 09:09:18;;;;;;;;;6.33;6.00;;;;;20.30;86.83;101110.06;5072547;27;45314;-72
2023/05/04 09:11:44;;;;;;;;;9.00;7.00;;;;;20.29;86.55;101114.50;5072906;28;45457;-71
2023/05/04 09:14:10;;;;;;;;;8.00;8.00;;;;;20.30;87.04;101123.47;5068982;27;66942;-71
2023/05/04 09:16:36;;;;;;;;;8.33;8.33;;;;;20.29;86.43;101113.63;5063820;28;45357;-70
2023/05/04 09:19:03;;;;;;;;;11.00;11.00;;;;;20.28;87.42;101106.50;5066386;28;45310;-71
2023/05/04 09:21:30;;;;;;;;;10.67;9.00;;;;;20.27;87.93;101104.75;5061717;28;45445;-71
2023/05/04 09:23:55;;;;;;;;;8.00;8.00;;;;;20.33;87.30;101108.16;5061947;28;46168;-71
2023/05/04 09:26:31;;;;;;;;;7.00;7.00;;;;;20.39;86.90;101097.28;5059264;28;45378;-71
2023/05/04 09:29:08;;;;;;;;;7.33;6.33;;;;;20.48;87.73;101090.84;5074058;28;45298;-71
2023/05/04 09:31:48;;;;;;;;;9.33;8.33;;;;;20.64;87.32;101097.56;5076751;28;45365;-71
2023/05/04 09:34:14;;;;;;;;;8.00;8.00;;;;;20.84;86.62;101090.78;5091528;27;46562;-71
2023/05/04 09:36:39;;;;;;;;;9.00;8.00;;;;;20.99;86.42;101086.81;5074474;27;45645;-71
2023/05/04 09:39:09;;;;;;;;;8.00;8.00;;;;;21.10;85.72;101085.56;5071039;28;45452;-72
2023/05/04 09:41:35;;;;;;;;;5.00;5.00;;;;;21.21;85.51;101079.91;5072576;28;45497;-72
2023/05/04 09:44:02;;;;;;;;;8.67;8.00;;;;;21.29;84.93;101087.72;5071418;27;46285;-72
2023/05/04 09:46:28;;;;;;;;;9.00;8.00;;;;;21.26;85.06;101086.03;5070522;27;45233;-71
2023/05/04 09:48:57;;;;;;;;;9.67;9.67;;;;;21.26;84.68;101096.75;5076098;28;64110;-72
2023/05/04 09:51:26;;;;;;;;;9.33;8.00;;;;;21.21;84.23;101076.34;5074854;28;45627;-71
2023/05/04 09:53:51;;;;;;;;;10.33;8.00;;;;;21.16;84.23;101089.91;5060929;28;45930;-71
2023/05/04 09:56:21;;;;;;;;;9.00;6.00;;;;;21.19;84.97;101092.47;5061008;28;46026;-71
2023/05/04 09:58:48;;;;;;;;;11.67;7.33;;;;;21.17;83.82;101089.84;5059227;28;45455;-72
2023/05/04 10:01:13;;;;;;;;;9.33;7.33;;;;;21.11;83.90;101081.09;5070398;28;45605;-71
2023/05/04 10:03:39;;;;;;;;;9.67;8.67;;;;;21.10;84.62;101095.44;5069923;28;71067;-71
2023/05/04 10:06:05;;;;;;;;;8.00;8.00;;;;;21.06;84.24;101089.28;5073096;27;62496;-71
2023/05/04 10:08:31;;;;;;;;;7.00;7.00;;;;;21.05;84.91;101090.19;5069375;28;45520;-71
2023/05/04 10:10:57;;;;;;;;;12.33;9.00;;;;;21.03;85.20;101089.34;5070397;28;45341;-71
2023/05/04 10:13:23;;;;;;;;;7.00;6.00;;;;;21.02;85.24;101087.59;5071237;28;47128;-72
2023/05/04 10:16:09;;;;;;;;;9.00;9.00;;;;;21.09;84.43;101096.34;5066902;28;45326;-71
2023/05/04 10:18:56;;;;;;;;;7.00;7.00;;;;;21.14;84.52;101080.97;5064274;28;45746;-71
2023/05/04 10:21:27;;;;;;;;;8.00;8.00;;;;;21.18;84.36;101085.34;5070417;28;45700;-71
2023/05/04 10:24:35;;;;;;;;;6.67;6.67;;;;;21.22;84.49;101078.09;5060330;28;47710;-72
2023/05/04 10:27:08;;;;;;;;;9.00;9.00;;;;;21.25;85.10;101070.81;5052821;28;45399;-72
2023/05/04 10:29:34;;;;;;;;;9.00;8.00;;;;;21.32;84.18;101064.38;5064524;28;45311;-71
2023/05/04 10:31:59;;;;;;;;;10.67;8.33;;;;;21.40;83.46;101066.81;5056298;28;50588;-72
2023/05/04 10:34:31;;;;;;;;;6.33;6.33;;;;;21.49;83.52;101038.81;5075384;28;45584;-71
2023/05/04 10:36:58;;;;;;;;;7.33;7.33;;;;;21.60;84.45;101044.72;5071698;27;45432;-72
2023/05/04 10:39:26;;;;;;;;;7.00;7.00;;;;;21.68;83.35;101054.31;5070019;28;45425;-71
2023/05/04 10:42:11;;;;;;;;;8.00;7.00;;;;;21.78;83.06;101046.81;5065108;28;45449;-71
2023/05/04 10:44:55;;;;;;;;;7.00;7.00;;;;;21.91;81.99;101045.50;5062662;28;45343;-71
2023/05/04 10:47:32;;;;;;;;;6.67;6.67;;;;;22.16;82.00;101042.06;5064040;28;45530;-71
2023/05/04 10:50:03;;;;;;;;;9.00;7.33;;;;;22.47;81.94;101048.13;5064083;28;45520;-72
2023/05/04 10:52:30;;;;;;;;;8.00;7.00;;;;;22.74;80.55;101040.00;5062251;28;45258;-72
2023/05/04 10:55:03;;;;;;;;;9.00;9.00;;;;;22.96;80.02;101037.47;5061207;28;46228;-71
2023/05/04 10:57:30;;;;;;;;;9.33;8.00;;;;;23.11;79.49;101044.94;5059014;28;45448;-70
2023/05/04 10:59:57;;;;;;;;;6.67;6.00;;;;;23.20;79.00;101039.22;5060659;27;45387;-72
2023/05/04 11:02:23;;;;;;;;;8.33;7.33;;;;;23.26;78.53;101054.28;5073226;28;45319;-72
2023/05/04 11:05:03;;;;;;;;;8.00;8.00;;;;;23.31;78.14;101070.25;5069919;28;46914;-71
2023/05/04 11:07:38;;;;;;;;;9.00;7.33;;;;;23.34;76.83;101060.25;5070806;28;45892;-71
2023/05/04 11:10:06;;;;;;;;;2.00;2.00;;;;;23.39;75.68;101069.03;5075653;28;45362;-71
2023/05/04 11:12:32;;;;;;;;;6.67;5.33;;;;;23.43;75.08;101076.06;5068791;27;45256;-71
2023/05/04 11:15:05;;;;;;;;;7.00;7.00;;;;;23.47;74.38;101075.00;5069536;27;45728;-71